Flight Track Log - Related Links

Times and Time Zones

All times are in EDT time to prevent confusion due to time zone crossing. See the DAL1331 flight status page for this flight to view local times or setup timezone preferences in your user account.

Time Position Orientation Groundspeed Altitude Reporting Facility
EDT Latitude Longitude Course Direction KTS MPH feet Rate Location/Type
Sun 07:42:43 PM 39.1833 -76.7167 282° West 181 208 1,500  Level Potomac TRACON
Sun 07:43:43 PM 39.1833 -76.8000 270° West 242 278 4,100 2,700 Climbing Potomac TRACON
Sun 07:44:43 PM 39.1833 -76.8833 270° West 257 296 6,900 2,400 Climbing Potomac TRACON
Sun 07:45:00 PM 39.2000 -77.0881 270° West  Level FlightAware Approximate
Sun 07:46:00 PM 39.2552 -77.1885 322° Northwest  Level FlightAware Approximate
Sun 07:46:43 PM 39.2586 -77.0711 297° West 271 312 11,300  Level Washington Center
Sun 07:47:00 PM 39.3433 -77.2766 322° Northwest  Level FlightAware Approximate
Sun 07:47:44 PM 39.3008 -77.1875 295° West 314 361 12,700  Level Washington Center
Sun 07:48:00 PM 39.3917 -77.4003 282° West  Level FlightAware Approximate
Sun 07:48:44 PM 39.3492 -77.3119 297° West 357 411 14,600  Level Washington Center
Sun 07:49:45 PM 39.3994 -77.4419 297° West 387 445 16,900 2,033 Climbing Washington Center
Sun 07:50:45 PM 39.4494 -77.5697 297° West 399 459 18,700 1,780 Climbing Washington Center
Sun 07:51:43 PM 39.4931 -77.7081 292° West 404 465 20,400 1,449 Climbing Washington Center
Sun 07:53:43 PM 39.5792 -77.9919 292° West 409 471 23,000 1,500 Climbing Cleveland Center
Sun 07:54:43 PM 39.6217 -78.1333 291° West 416 479 24,900 1,750 Climbing Cleveland Center
Sun 07:55:43 PM 39.6644 -78.2772 291° West 428 493 26,500 1,537 Climbing Cleveland Center
Sun 07:56:44 PM 39.7003 -78.4056 290° West 428 493 28,000 744 Climbing Cleveland Center
Sun 07:57:44 PM 39.7425 -78.5419 292° West 423 487 28,000  Level Cleveland Center
Sun 07:58:43 PM 39.7847 -78.6947 290° West 423 487 28,000  Level Cleveland Center
Sun 07:59:43 PM 39.8200 -78.8208 290° West 423 487 28,000  Level Cleveland Center
Sun 08:00:44 PM 39.8661 -78.9764 291° West 423 487 28,000  Level Cleveland Center
Sun 08:01:43 PM 39.9075 -79.1161 291° West 423 487 28,000  Level Cleveland Center
Sun 08:02:43 PM 39.9469 -79.2561 290° West 418 481 28,000  Level Cleveland Center
Sun 08:03:44 PM 39.9942 -79.3933 294° West 418 481 28,000  Level Cleveland Center
Sun 08:04:44 PM 40.0581 -79.5197 303° West 418 481 28,000  Level Cleveland Center
Sun 08:05:43 PM 40.1239 -79.6464 304° West 418 481 28,000 150 Level Cleveland Center
Sun 08:06:44 PM 40.1894 -79.7733 304° West 423 487 28,300 500 Climbing Cleveland Center
Sun 08:07:43 PM 40.2528 -79.9003 303° West 423 487 29,000 353 Climbing Cleveland Center
Sun 08:08:43 PM 40.3158 -80.0222 304° West 417 480 29,000  Level Cleveland Center
Sun 08:09:44 PM 40.3706 -80.1417 301° West 417 480 29,000  Level Cleveland Center
Sun 08:10:43 PM 40.4356 -80.2639 305° West 417 480 29,000  Level Cleveland Center
Sun 08:11:43 PM 40.5006 -80.3839 305° West 411 473 29,000  Level Cleveland Center
Sun 08:12:43 PM 40.5611 -80.5092 302° West 406 467 29,000 -350 Level Cleveland Center
Sun 08:13:43 PM 40.6217 -80.6322 303° West 406 467 28,300 -500 Descending Cleveland Center
Sun 08:14:43 PM 40.6819 -80.7528 303° West 406 467 28,000 -149 Descending Cleveland Center
Sun 08:15:44 PM 40.7422 -80.8764 303° West 412 474 28,000  Level Cleveland Center
Sun 08:16:43 PM 40.8022 -80.9972 303° West 405 466 28,000  Level Cleveland Center
Sun 08:17:43 PM 40.8581 -81.1183 301° West 400 460 28,000  Level Cleveland Center
Sun 08:18:44 PM 40.9158 -81.2425 302° West 394 453 28,000  Level Cleveland Center
Sun 08:19:43 PM 40.9817 -81.3753 303° West 394 453 28,000  Level Cleveland Center
Sun 08:20:44 PM 41.0411 -81.4997 302° West 394 453 28,000  Level Cleveland Center
Sun 08:21:44 PM 41.0964 -81.6164 302° West 394 453 28,000  Level Cleveland Center
Sun 08:22:43 PM 41.1539 -81.7219 306° West 394 453 28,000  Level Cleveland Center
Sun 08:23:43 PM 41.2172 -81.8364 306° West 394 453 28,000  Level Cleveland Center
Sun 08:24:43 PM 41.2806 -81.9564 305° West 394 453 28,000  Level Cleveland Center
Sun 08:25:43 PM 41.3394 -82.0767 303° West 394 453 28,000  Level Cleveland Center
Sun 08:26:43 PM 41.4003 -82.1969 304° West 400 460 28,000  Level Cleveland Center
Sun 08:27:44 PM 41.4631 -82.3178 305° West 400 460 28,000  Level Cleveland Center
Sun 08:28:44 PM 41.5258 -82.4442 304° West 407 468 28,000  Level Cleveland Center
Sun 08:29:43 PM 41.5944 -82.5711 306° West 401 461 28,000  Level Cleveland Center
Sun 08:30:43 PM 41.6569 -82.6897 305° West 401 461 28,000  Level Cleveland Center
Sun 08:31:43 PM 41.7194 -82.8114 305° West 401 461 28,000  Level Cleveland Center
Sun 08:32:43 PM 41.7794 -82.9306 304° West 401 461 28,000  Level Cleveland Center
Sun 08:33:44 PM 41.8417 -83.0497 305° West 401 461 28,000  Level Cleveland Center
Sun 08:34:43 PM 41.8897 -83.1467 304° West 401 461 28,000  Level Cleveland Center
Sun 08:35:43 PM 41.9528 -83.3000 299° West 401 461 28,000  Level Cleveland Center
Sun 08:36:44 PM 41.9853 -83.4214 290° West 387 445 28,000  Level Cleveland Center
Sun 08:37:44 PM 42.0194 -83.5572 289° West 381 438 28,000  Level Cleveland Center
Sun 08:38:43 PM 42.0511 -83.6928 288° West 381 438 28,000  Level Cleveland Center
Sun 08:39:44 PM 42.0869 -83.8289 290° West 387 445 28,000  Level Cleveland Center
Sun 08:40:43 PM 42.1228 -83.9653 290° West 392 451 28,000  Level Cleveland Center
Sun 08:41:43 PM 42.1603 -84.1072 290° West 392 451 28,000  Level Cleveland Center
Sun 08:42:44 PM 42.1933 -84.2464 288° West 392 451 28,000  Level Cleveland Center
Sun 08:43:43 PM 42.2264 -84.3858 288° West 392 451 28,000  Level Cleveland Center
Sun 08:44:43 PM 42.2614 -84.5197 289° West 392 451 28,000  Level Cleveland Center
Sun 08:45:44 PM 42.3042 -84.6686 291° West 395 455 28,000  Level Cleveland Center
Sun 08:46:58 PM 42.3381 -84.8314 286° West 383 441 28,000  Level Chicago Center
Sun 08:48:00 PM 42.3722 -84.9678 289° West 384 442 28,000  Level Chicago Center
Sun 08:49:02 PM 42.4050 -85.1050 288° West 384 442 28,000  Level Chicago Center
Sun 08:50:04 PM 42.4383 -85.2439 288° West 386 444 28,000  Level Chicago Center
Sun 08:51:06 PM 42.4708 -85.3803 288° West 383 441 28,000  Level Chicago Center
Sun 08:52:08 PM 42.5114 -85.5467 288° West 387 445 28,000  Level Chicago Center
Sun 08:53:10 PM 42.5436 -85.6833 288° West 382 440 28,000  Level Chicago Center
Sun 08:54:12 PM 42.5756 -85.8244 287° West 389 448 28,000  Level Chicago Center
Sun 08:55:14 PM 42.6083 -85.9633 288° West 387 445 28,000  Level Chicago Center
Sun 08:56:16 PM 42.6400 -86.1025 287° West 384 442 28,000  Level Chicago Center
Sun 08:57:18 PM 42.6719 -86.2419 287° West 384 442 28,000  Level Chicago Center
Sun 08:58:20 PM 42.7028 -86.3814 287° West 381 438 28,000  Level Chicago Center
Sun 08:59:25 PM 42.7408 -86.5478 287° West 383 441 28,000  Level Chicago Center
Sun 09:00:27 PM 42.7717 -86.6861 287° West 381 438 28,000  Level Chicago Center
Sun 09:01:29 PM 42.8028 -86.8253 287° West 383 441 28,000  Level Chicago Center
Sun 09:02:31 PM 42.8333 -86.9644 287° West 384 442 28,000  Level Chicago Center
Sun 09:03:33 PM 42.8639 -87.1036 287° West 383 441 28,000  Level Chicago Center
Sun 09:04:35 PM 42.8992 -87.2414 289° West 384 442 28,000  Level Chicago Center
Sun 09:05:37 PM 42.9625 -87.3800 302° West 386 444 28,000  Level Chicago Center
Sun 09:06:39 PM 43.0175 -87.5050 301° West 384 442 28,000  Level Chicago Center
Sun 09:07:41 PM 43.0825 -87.6514 301° West 384 442 28,000  Level Chicago Center
Sun 09:08:43 PM 43.1386 -87.7792 301° West 390 449 28,000  Level Chicago Center
Sun 09:09:44 PM 43.1947 -87.9064 301° West 390 449 28,000  Level Chicago Center
Sun 09:10:46 PM 43.2508 -88.0344 301° West 392 451 28,000  Level Chicago Center
Sun 09:11:48 PM 43.3061 -88.1622 301° West 390 449 28,000  Level Chicago Center
Sun 09:12:50 PM 43.3631 -88.2900 302° West 391 450 28,000  Level Chicago Center
Sun 09:13:52 PM 43.4261 -88.4339 301° West 395 455 28,000  Level Chicago Center
Sun 09:14:53 PM 43.4917 -88.5781 302° West 403 464 28,000  Level Chicago Center
Sun 09:15:55 PM 43.5381 -88.6903 300° West 392 451 28,000  Level Chicago Center
Sun 09:16:57 PM 43.6031 -88.8392 301° West 389 448 28,000  Level Chicago Center
Sun 09:17:59 PM 43.6583 -88.9686 301° West 390 449 28,000  Level Chicago Center
Sun 09:19:01 PM 43.7139 -89.0992 301° West 392 451 28,000  Level Chicago Center
Sun 09:19:19 PM 43.7328 -89.1419 301° West 393 452 28,000  Level Minneapolis Center
Sun 09:20:03 PM 43.7686 -89.2294 300° West 393 452 28,000  Level Chicago Center
Sun 09:21:04 PM 43.8242 -89.3606 300° West 393 452 28,000  Level Chicago Center
Sun 09:21:23 PM 43.8417 -89.4039 299° West 395 455 28,000  Level Minneapolis Center
Sun 09:22:06 PM 43.8806 -89.4922 301° West 396 456 28,000  Level Chicago Center
Sun 09:23:08 PM 43.9453 -89.6444 301° West 394 453 28,000  Level Chicago Center
Sun 09:24:10 PM 44.0003 -89.7769 300° West 395 455 28,000  Level Chicago Center
Sun 09:25:12 PM 44.0550 -89.9097 300° West 395 455 28,000  Level Chicago Center
Sun 09:25:31 PM 44.0731 -89.9536 300° West 397 457 28,000  Level Minneapolis Center
Sun 09:26:33 PM 44.1403 -90.0753 308° West 397 457 28,000  Level Minneapolis Center
Sun 09:27:35 PM 44.2083 -90.1972 308° West 398 458 28,000  Level Minneapolis Center
Sun 09:28:37 PM 44.2750 -90.3214 307° West 399 459 28,000  Level Minneapolis Center
Sun 09:29:39 PM 44.3436 -90.4461 308° West 402 463 28,000  Level Minneapolis Center
Sun 09:30:41 PM 44.4233 -90.5903 308° West 400 460 28,000  Level Minneapolis Center
Sun 09:31:43 PM 44.4908 -90.7142 307° West 401 461 28,000  Level Minneapolis Center
Sun 09:32:45 PM 44.5564 -90.8369 307° West 395 455 28,000  Level Minneapolis Center
Sun 09:33:46 PM 44.6192 -90.9750 303° West 392 451 28,000  Level Minneapolis Center
Sun 09:34:48 PM 44.6642 -91.1142 294° West 392 451 28,000  Level Minneapolis Center
Sun 09:35:50 PM 44.7094 -91.2525 295° West 392 451 28,000 -387 Level Minneapolis Center
Sun 09:36:52 PM 44.7550 -91.3906 295° West 391 450 27,200 -1,790 Descending Minneapolis Center
Sun 09:37:54 PM 44.8000 -91.5269 295° West 390 449 24,300 -2,952 Descending Minneapolis Center
Sun 09:38:56 PM 44.8528 -91.6875 295° West 385 443 21,100 -2,661 Descending Minneapolis Center
Sun 09:39:58 PM 44.8956 -91.8147 295° West 371 427 18,800 -2,371 Descending Minneapolis Center
Sun 09:41:00 PM 44.9364 -91.9372 295° West 348 400 16,200 -2,516 Descending Minneapolis Center
Sun 09:42:02 PM 44.9756 -92.0561 295° West 337 388 13,600 -2,439 Descending Minneapolis Center
Sun 09:43:03 PM 45.0136 -92.1744 294° West 333 383 11,200 -1,317 Descending Minneapolis Center
Sun 09:44:05 PM 45.0486 -92.2942 293° West 333 383 10,900 -97 Descending Minneapolis Center
Sun 09:45:07 PM 45.0256 -92.4486 258° West 336 387 11,000 49 Climbing Minneapolis Center
Sun 09:46:08 PM 45.0050 -92.5764 257° West 337 388 11,000  Level Minneapolis Center
Sun 09:47:10 PM 44.9850 -92.7036 258° West 334 384 11,000 -48 Level Minneapolis Center
Sun 09:48:12 PM 44.9656 -92.8217 257° West 308 354 10,900 -683 Descending Minneapolis Center
Sun 09:49:13 PM 44.9489 -92.9244 257° West 274 315 9,600 -1,415 Descending Minneapolis Center
Sun 09:50:15 PM 44.9322 -93.0278 257° West 272 313 8,000 -823 Descending Minneapolis Center
Sun 09:51:17 PM 44.9569 -93.1386 288° West 264 304 7,900 -823 Descending Minneapolis Center
Sun 09:52:19 PM 44.9958 -93.2219 303° West 258 297 6,300 -1,122 Descending Minneapolis Center
Sun 09:53:20 PM 45.0331 -93.3039 303° West 251 289 5,600 -689 Descending Minneapolis Center

Login

Don't have an account? Register now (free) for customized features, flight alerts, and more!